sensor_id;sensor_type;location;lat;lon;timestamp;temperature;humidity
29713;DHT22;16623;53.632;10.016;2023-05-10T00:01:38;14.40;74.70
29713;DHT22;16623;53.632;10.016;2023-05-10T00:04:03;14.40;75.20
29713;DHT22;16623;53.632;10.016;2023-05-10T00:06:29;14.50;74.90
29713;DHT22;16623;53.632;10.016;2023-05-10T00:08:55;14.40;75.30
29713;DHT22;16623;53.632;10.016;2023-05-10T00:11:21;14.50;75.30
29713;DHT22;16623;53.632;10.016;2023-05-10T00:13:46;14.50;75.40
29713;DHT22;16623;53.632;10.016;2023-05-10T00:16:12;14.40;75.50
29713;DHT22;16623;53.632;10.016;2023-05-10T00:18:39;14.40;75.80
29713;DHT22;16623;53.632;10.016;2023-05-10T00:21:05;14.40;76.10
29713;DHT22;16623;53.632;10.016;2023-05-10T00:23:31;14.30;76.60
29713;DHT22;16623;53.632;10.016;2023-05-10T00:25:56;14.30;76.60
29713;DHT22;16623;53.632;10.016;2023-05-10T00:28:22;14.30;76.80
29713;DHT22;16623;53.632;10.016;2023-05-10T00:30:47;14.20;77.00
29713;DHT22;16623;53.632;10.016;2023-05-10T00:33:13;14.20;77.00
29713;DHT22;16623;53.632;10.016;2023-05-10T00:35:38;14.30;77.00
29713;DHT22;16623;53.632;10.016;2023-05-10T00:38:04;14.30;77.10
29713;DHT22;16623;53.632;10.016;2023-05-10T00:40:29;14.20;77.60
29713;DHT22;16623;53.632;10.016;2023-05-10T00:42:57;14.10;78.20
29713;DHT22;16623;53.632;10.016;2023-05-10T00:45:22;14.10;78.40
29713;DHT22;16623;53.632;10.016;2023-05-10T00:47:48;14.10;78.00
29713;DHT22;16623;53.632;10.016;2023-05-10T00:50:14;14.10;78.40
29713;DHT22;16623;53.632;10.016;2023-05-10T00:52:41;14.10;78.40
29713;DHT22;16623;53.632;10.016;2023-05-10T00:55:08;14.10;78.30
29713;DHT22;16623;53.632;10.016;2023-05-10T00:57:34;14.10;78.20
29713;DHT22;16623;53.632;10.016;2023-05-10T01:00:01;14.10;78.20
29713;DHT22;16623;53.632;10.016;2023-05-10T01:02:28;14.10;78.50
29713;DHT22;16623;53.632;10.016;2023-05-10T01:04:54;14.00;79.30
29713;DHT22;16623;53.632;10.016;2023-05-10T01:07:20;14.00;79.20
29713;DHT22;16623;53.632;10.016;2023-05-10T01:09:45;13.90;79.60
29713;DHT22;16623;53.632;10.016;2023-05-10T01:12:11;13.90;80.10
29713;DHT22;16623;53.632;10.016;2023-05-10T01:14:37;13.80;80.40
29713;DHT22;16623;53.632;10.016;2023-05-10T01:17:05;13.80;80.30
29713;DHT22;16623;53.632;10.016;2023-05-10T01:19:31;13.80;80.50
29713;DHT22;16623;53.632;10.016;2023-05-10T01:22:37;13.80;80.50
29713;DHT22;16623;53.632;10.016;2023-05-10T01:31:08;13.60;81.80
29713;DHT22;16623;53.632;10.016;2023-05-10T01:33:49;13.50;82.10
29713;DHT22;16623;53.632;10.016;2023-05-10T01:39:15;13.60;82.30
29713;DHT22;16623;53.632;10.016;2023-05-10T01:41:51;13.50;82.50
29713;DHT22;16623;53.632;10.016;2023-05-10T01:44:42;13.40;83.90
29713;DHT22;16623;53.632;10.016;2023-05-10T01:47:20;13.50;83.20
29713;DHT22;16623;53.632;10.016;2023-05-10T01:49:51;13.50;82.80
29713;DHT22;16623;53.632;10.016;2023-05-10T01:52:21;13.40;83.30
29713;DHT22;16623;53.632;10.016;2023-05-10T01:55:08;13.50;83.10
29713;DHT22;16623;53.632;10.016;2023-05-10T01:57:36;13.50;83.40
29713;DHT22;16623;53.632;10.016;2023-05-10T02:00:03;13.50;83.40
29713;DHT22;16623;53.632;10.016;2023-05-10T02:02:35;13.50;83.30
29713;DHT22;16623;53.632;10.016;2023-05-10T02:05:03;13.40;83.90
29713;DHT22;16623;53.632;10.016;2023-05-10T02:07:32;13.20;84.50
29713;DHT22;16623;53.632;10.016;2023-05-10T02:10:01;13.20;85.30
29713;DHT22;16623;53.632;10.016;2023-05-10T02:12:28;13.10;85.60
29713;DHT22;16623;53.632;10.016;2023-05-10T02:14:56;13.10;85.80
29713;DHT22;16623;53.632;10.016;2023-05-10T02:17:23;13.20;86.20
29713;DHT22;16623;53.632;10.016;2023-05-10T02:19:51;13.20;85.80
29713;DHT22;16623;53.632;10.016;2023-05-10T02:22:19;13.10;86.10
29713;DHT22;16623;53.632;10.016;2023-05-10T02:24:46;13.10;86.50
29713;DHT22;16623;53.632;10.016;2023-05-10T02:27:14;13.10;86.70
29713;DHT22;16623;53.632;10.016;2023-05-10T02:29:43;13.00;86.70
29713;DHT22;16623;53.632;10.016;2023-05-10T02:32:18;13.00;87.10
29713;DHT22;16623;53.632;10.016;2023-05-10T02:34:45;13.10;87.20
29713;DHT22;16623;53.632;10.016;2023-05-10T02:37:13;13.10;87.40
29713;DHT22;16623;53.632;10.016;2023-05-10T02:39:40;13.00;88.20
29713;DHT22;16623;53.632;10.016;2023-05-10T02:42:11;12.90;88.70
29713;DHT22;16623;53.632;10.016;2023-05-10T02:44:40;12.90;88.40
29713;DHT22;16623;53.632;10.016;2023-05-10T02:47:07;12.70;89.50
29713;DHT22;16623;53.632;10.016;2023-05-10T02:49:32;12.70;89.50
29713;DHT22;16623;53.632;10.016;2023-05-10T02:52:00;12.70;90.00
29713;DHT22;16623;53.632;10.016;2023-05-10T02:54:31;12.70;89.80
29713;DHT22;16623;53.632;10.016;2023-05-10T02:57:00;12.70;90.20
29713;DHT22;16623;53.632;10.016;2023-05-10T02:59:26;12.70;90.20
29713;DHT22;16623;53.632;10.016;2023-05-10T03:01:53;12.70;90.50
29713;DHT22;16623;53.632;10.016;2023-05-10T03:04:18;12.60;90.50
29713;DHT22;16623;53.632;10.016;2023-05-10T03:06:44;12.60;90.90
29713;DHT22;16623;53.632;10.016;2023-05-10T03:09:10;12.50;91.00
29713;DHT22;16623;53.632;10.016;2023-05-10T03:11:50;12.50;91.10
29713;DHT22;16623;53.632;10.016;2023-05-10T03:17:17;12.50;91.30
29713;DHT22;16623;53.632;10.016;2023-05-10T03:19:55;12.50;91.30
29713;DHT22;16623;53.632;10.016;2023-05-10T03:22:45;12.60;91.20
29713;DHT22;16623;53.632;10.016;2023-05-10T03:25:12;12.70;91.20
29713;DHT22;16623;53.632;10.016;2023-05-10T03:27:42;12.70;91.10
29713;DHT22;16623;53.632;10.016;2023-05-10T03:30:10;12.70;91.40
29713;DHT22;16623;53.632;10.016;2023-05-10T03:32:37;12.60;91.60
29713;DHT22;16623;53.632;10.016;2023-05-10T03:35:12;12.40;91.90
29713;DHT22;16623;53.632;10.016;2023-05-10T03:37:41;12.40;92.00
29713;DHT22;16623;53.632;10.016;2023-05-10T03:40:07;12.40;92.10
29713;DHT22;16623;53.632;10.016;2023-05-10T03:42:33;12.40;92.30
29713;DHT22;16623;53.632;10.016;2023-05-10T03:44:59;12.40;92.40
29713;DHT22;16623;53.632;10.016;2023-05-10T03:47:24;12.50;92.40
29713;DHT22;16623;53.632;10.016;2023-05-10T03:49:50;12.50;92.10
29713;DHT22;16623;53.632;10.016;2023-05-10T03:52:15;12.40;92.60
29713;DHT22;16623;53.632;10.016;2023-05-10T03:54:41;12.40;92.60
29713;DHT22;16623;53.632;10.016;2023-05-10T03:57:07;12.40;93.00
29713;DHT22;16623;53.632;10.016;2023-05-10T03:59:32;12.50;93.00
29713;DHT22;16623;53.632;10.016;2023-05-10T04:01:58;12.60;92.90
29713;DHT22;16623;53.632;10.016;2023-05-10T04:04:24;12.70;92.70
29713;DHT22;16623;53.632;10.016;2023-05-10T04:06:49;12.60;92.80
29713;DHT22;16623;53.632;10.016;2023-05-10T04:09:15;12.80;92.60
29713;DHT22;16623;53.632;10.016;2023-05-10T04:11:41;12.90;92.10
29713;DHT22;16623;53.632;10.016;2023-05-10T04:14:07;13.00;92.00
29713;DHT22;16623;53.632;10.016;2023-05-10T04:16:33;13.10;91.90
29713;DHT22;16623;53.632;10.016;2023-05-10T04:18:58;13.10;91.80
29713;DHT22;16623;53.632;10.016;2023-05-10T04:21:25;13.20;91.40
29713;DHT22;16623;53.632;10.016;2023-05-10T04:23:50;13.30;91.20
29713;DHT22;16623;53.632;10.016;2023-05-10T04:26:16;13.20;91.20
29713;DHT22;16623;53.632;10.016;2023-05-10T04:28:41;13.20;91.10
29713;DHT22;16623;53.632;10.016;2023-05-10T04:31:09;13.20;91.40
29713;DHT22;16623;53.632;10.016;2023-05-10T04:33:35;13.20;91.40
29713;DHT22;16623;53.632;10.016;2023-05-10T04:36:01;13.20;91.50
29713;DHT22;16623;53.632;10.016;2023-05-10T04:38:27;13.30;91.50
29713;DHT22;16623;53.632;10.016;2023-05-10T04:40:53;13.30;91.60
29713;DHT22;16623;53.632;10.016;2023-05-10T04:43:19;13.40;91.20
29713;DHT22;16623;53.632;10.016;2023-05-10T04:45:44;13.40;91.30
29713;DHT22;16623;53.632;10.016;2023-05-10T04:48:10;13.30;91.50
29713;DHT22;16623;53.632;10.016;2023-05-10T04:50:36;13.30;91.70
29713;DHT22;16623;53.632;10.016;2023-05-10T04:53:02;13.50;91.50
29713;DHT22;16623;53.632;10.016;2023-05-10T04:55:27;13.70;90.90
29713;DHT22;16623;53.632;10.016;2023-05-10T04:57:53;13.70;91.40
29713;DHT22;16623;53.632;10.016;2023-05-10T05:00:22;13.80;90.50
29713;DHT22;16623;53.632;10.016;2023-05-10T05:02:48;13.90;90.30
29713;DHT22;16623;53.632;10.016;2023-05-10T05:05:13;14.00;90.30
29713;DHT22;16623;53.632;10.016;2023-05-10T05:07:39;14.10;89.60
29713;DHT22;16623;53.632;10.016;2023-05-10T05:10:08;14.10;89.60
29713;DHT22;16623;53.632;10.016;2023-05-10T05:12:35;14.20;89.20
29713;DHT22;16623;53.632;10.016;2023-05-10T05:15:01;14.10;90.50
29713;DHT22;16623;53.632;10.016;2023-05-10T05:17:27;14.10;90.10
29713;DHT22;16623;53.632;10.016;2023-05-10T05:19:52;14.30;89.00
29713;DHT22;16623;53.632;10.016;2023-05-10T05:22:18;14.30;89.50
29713;DHT22;16623;53.632;10.016;2023-05-10T05:24:45;14.30;88.50
29713;DHT22;16623;53.632;10.016;2023-05-10T05:27:12;14.30;87.90
29713;DHT22;16623;53.632;10.016;2023-05-10T05:29:38;14.40;88.70
29713;DHT22;16623;53.632;10.016;2023-05-10T05:32:04;14.50;88.90
29713;DHT22;16623;53.632;10.016;2023-05-10T05:34:30;14.40;88.90
29713;DHT22;16623;53.632;10.016;2023-05-10T05:36:55;14.40;88.70
29713;DHT22;16623;53.632;10.016;2023-05-10T05:39:21;14.50;88.50
29713;DHT22;16623;53.632;10.016;2023-05-10T05:41:47;14.40;88.60
29713;DHT22;16623;53.632;10.016;2023-05-10T05:44:13;14.50;89.20
29713;DHT22;16623;53.632;10.016;2023-05-10T05:46:38;14.60;89.90
29713;DHT22;16623;53.632;10.016;2023-05-10T05:49:04;14.70;87.70
29713;DHT22;16623;53.632;10.016;2023-05-10T05:51:30;14.70;88.30
29713;DHT22;16623;53.632;10.016;2023-05-10T05:53:56;14.80;88.70
29713;DHT22;16623;53.632;10.016;2023-05-10T05:56:21;15.00;87.70
29713;DHT22;16623;53.632;10.016;2023-05-10T05:58:52;15.10;86.30
29713;DHT22;16623;53.632;10.016;2023-05-10T06:01:17;15.40;87.10
29713;DHT22;16623;53.632;10.016;2023-05-10T06:03:43;15.50;85.00
29713;DHT22;16623;53.632;10.016;2023-05-10T06:06:09;15.50;83.90
29713;DHT22;16623;53.632;10.016;2023-05-10T06:08:34;15.60;84.20
29713;DHT22;16623;53.632;10.016;2023-05-10T06:11:00;15.60;84.00
29713;DHT22;16623;53.632;10.016;2023-05-10T06:13:26;15.50;84.80
29713;DHT22;16623;53.632;10.016;2023-05-10T06:15:57;15.60;84.30
29713;DHT22;16623;53.632;10.016;2023-05-10T06:18:23;15.50;84.30
29713;DHT22;16623;53.632;10.016;2023-05-10T06:20:49;15.60;84.00
29713;DHT22;16623;53.632;10.016;2023-05-10T06:23:15;15.50;84.40
29713;DHT22;16623;53.632;10.016;2023-05-10T06:25:41;15.60;84.60
29713;DHT22;16623;53.632;10.016;2023-05-10T06:28:07;15.70;84.90
29713;DHT22;16623;53.632;10.016;2023-05-10T06:30:32;15.70;85.20
29713;DHT22;16623;53.632;10.016;2023-05-10T06:32:58;15.70;84.60
29713;DHT22;16623;53.632;10.016;2023-05-10T06:35:24;15.50;84.60
29713;DHT22;16623;53.632;10.016;2023-05-10T06:37:49;15.60;84.60
29713;DHT22;16623;53.632;10.016;2023-05-10T06:40:15;15.70;83.90
29713;DHT22;16623;53.632;10.016;2023-05-10T06:42:41;15.80;83.50
29713;DHT22;16623;53.632;10.016;2023-05-10T06:45:07;15.80;83.80
29713;DHT22;16623;53.632;10.016;2023-05-10T06:47:33;16.10;83.50
29713;DHT22;16623;53.632;10.016;2023-05-10T06:49:59;16.20;81.80
29713;DHT22;16623;53.632;10.016;2023-05-10T06:52:24;16.10;82.40
29713;DHT22;16623;53.632;10.016;2023-05-10T06:54:50;16.10;82.60
29713;DHT22;16623;53.632;10.016;2023-05-10T06:57:16;15.90;82.50
29713;DHT22;16623;53.632;10.016;2023-05-10T06:59:41;15.70;83.90
29713;DHT22;16623;53.632;10.016;2023-05-10T07:02:07;15.80;84.90
29713;DHT22;16623;53.632;10.016;2023-05-10T07:04:32;16.10;84.40
29713;DHT22;16623;53.632;10.016;2023-05-10T07:06:58;16.30;82.70
29713;DHT22;16623;53.632;10.016;2023-05-10T07:09:23;16.50;82.50
29713;DHT22;16623;53.632;10.016;2023-05-10T07:11:49;16.50;82.20
29713;DHT22;16623;53.632;10.016;2023-05-10T07:14:15;16.50;81.40
29713;DHT22;16623;53.632;10.016;2023-05-10T07:16:40;16.50;81.70
29713;DHT22;16623;53.632;10.016;2023-05-10T07:19:07;16.60;81.10
29713;DHT22;16623;53.632;10.016;2023-05-10T07:21:32;16.40;81.40
29713;DHT22;16623;53.632;10.016;2023-05-10T07:23:58;16.50;81.70
29713;DHT22;16623;53.632;10.016;2023-05-10T07:26:23;16.60;81.00
29713;DHT22;16623;53.632;10.016;2023-05-10T07:28:49;16.80;80.80
29713;DHT22;16623;53.632;10.016;2023-05-10T07:31:15;16.90;80.50
29713;DHT22;16623;53.632;10.016;2023-05-10T07:33:41;17.10;80.60
29713;DHT22;16623;53.632;10.016;2023-05-10T07:36:07;17.10;79.80
29713;DHT22;16623;53.632;10.016;2023-05-10T07:38:32;17.20;79.80
29713;DHT22;16623;53.632;10.016;2023-05-10T07:40:58;17.10;81.00
29713;DHT22;16623;53.632;10.016;2023-05-10T07:43:23;17.10;80.20
29713;DHT22;16623;53.632;10.016;2023-05-10T07:45:49;17.10;80.50
29713;DHT22;16623;53.632;10.016;2023-05-10T07:48:15;17.10;80.60
29713;DHT22;16623;53.632;10.016;2023-05-10T07:50:40;17.00;79.90
29713;DHT22;16623;53.632;10.016;2023-05-10T07:53:06;17.00;80.40
29713;DHT22;16623;53.632;10.016;2023-05-10T07:55:31;17.10;80.10
29713;DHT22;16623;53.632;10.016;2023-05-10T07:57:57;17.10;80.50
29713;DHT22;16623;53.632;10.016;2023-05-10T08:00:23;17.20;79.90
29713;DHT22;16623;53.632;10.016;2023-05-10T08:02:48;17.20;79.90
29713;DHT22;16623;53.632;10.016;2023-05-10T08:05:14;17.10;80.40
29713;DHT22;16623;53.632;10.016;2023-05-10T08:07:39;17.10;80.60
29713;DHT22;16623;53.632;10.016;2023-05-10T08:10:06;17.00;81.40
29713;DHT22;16623;53.632;10.016;2023-05-10T08:12:32;17.30;81.30
29713;DHT22;16623;53.632;10.016;2023-05-10T08:14:57;17.20;82.00
29713;DHT22;16623;53.632;10.016;2023-05-10T08:17:23;17.30;82.40
29713;DHT22;16623;53.632;10.016;2023-05-10T08:19:48;17.50;81.50
29713;DHT22;16623;53.632;10.016;2023-05-10T08:22:14;17.50;81.60
29713;DHT22;16623;53.632;10.016;2023-05-10T08:24:39;17.50;80.60
29713;DHT22;16623;53.632;10.016;2023-05-10T08:27:07;17.40;79.90
29713;DHT22;16623;53.632;10.016;2023-05-10T08:29:33;17.30;80.70
29713;DHT22;16623;53.632;10.016;2023-05-10T08:31:59;17.20;80.20
29713;DHT22;16623;53.632;10.016;2023-05-10T08:34:27;17.30;80.30
29713;DHT22;16623;53.632;10.016;2023-05-10T08:36:52;17.40;80.90
29713;DHT22;16623;53.632;10.016;2023-05-10T08:39:18;17.40;81.30
29713;DHT22;16623;53.632;10.016;2023-05-10T08:41:45;17.40;80.40
29713;DHT22;16623;53.632;10.016;2023-05-10T08:44:15;17.30;80.80
29713;DHT22;16623;53.632;10.016;2023-05-10T08:46:44;17.40;80.30
29713;DHT22;16623;53.632;10.016;2023-05-10T08:49:13;17.30;80.70
29713;DHT22;16623;53.632;10.016;2023-05-10T08:51:44;17.30;80.80
29713;DHT22;16623;53.632;10.016;2023-05-10T08:54:12;17.30;81.90
29713;DHT22;16623;53.632;10.016;2023-05-10T08:56:38;17.30;81.00
29713;DHT22;16623;53.632;10.016;2023-05-10T08:59:05;17.50;81.00
29713;DHT22;16623;53.632;10.016;2023-05-10T09:01:31;17.50;81.60
29713;DHT22;16623;53.632;10.016;2023-05-10T09:03:58;17.60;80.00
29713;DHT22;16623;53.632;10.016;2023-05-10T09:06:24;17.70;80.20
29713;DHT22;16623;53.632;10.016;2023-05-10T09:08:50;17.80;80.20
29713;DHT22;16623;53.632;10.016;2023-05-10T09:11:16;17.70;80.40
29713;DHT22;16623;53.632;10.016;2023-05-10T09:13:42;17.80;80.60
29713;DHT22;16623;53.632;10.016;2023-05-10T09:16:09;17.80;81.40
29713;DHT22;16623;53.632;10.016;2023-05-10T09:18:37;17.80;81.50
29713;DHT22;16623;53.632;10.016;2023-05-10T09:21:03;18.00;80.20
29713;DHT22;16623;53.632;10.016;2023-05-10T09:23:29;18.00;79.50
29713;DHT22;16623;53.632;10.016;2023-05-10T09:26:07;18.00;80.20
29713;DHT22;16623;53.632;10.016;2023-05-10T09:28:34;17.90;80.60
29713;DHT22;16623;53.632;10.016;2023-05-10T09:31:00;17.90;80.60
29713;DHT22;16623;53.632;10.016;2023-05-10T09:33:25;17.90;81.30
29713;DHT22;16623;53.632;10.016;2023-05-10T09:35:52;17.90;80.90
29713;DHT22;16623;53.632;10.016;2023-05-10T09:38:17;17.70;81.80
29713;DHT22;16623;53.632;10.016;2023-05-10T09:40:51;17.70;81.80
29713;DHT22;16623;53.632;10.016;2023-05-10T09:43:20;17.70;82.10
29713;DHT22;16623;53.632;10.016;2023-05-10T09:45:52;17.60;82.20
29713;DHT22;16623;53.632;10.016;2023-05-10T09:48:24;17.50;82.50
29713;DHT22;16623;53.632;10.016;2023-05-10T09:50:56;17.50;83.80
29713;DHT22;16623;53.632;10.016;2023-05-10T09:53:22;17.40;83.90
29713;DHT22;16623;53.632;10.016;2023-05-10T09:55:48;17.40;84.90
29713;DHT22;16623;53.632;10.016;2023-05-10T09:58:15;17.50;86.20
29713;DHT22;16623;53.632;10.016;2023-05-10T10:00:45;17.60;85.80
29713;DHT22;16623;53.632;10.016;2023-05-10T10:03:19;17.70;85.40
29713;DHT22;16623;53.632;10.016;2023-05-10T10:05:47;17.70;85.50
29713;DHT22;16623;53.632;10.016;2023-05-10T10:08:13;17.60;87.10
29713;DHT22;16623;53.632;10.016;2023-05-10T10:10:39;17.40;89.90
29713;DHT22;16623;53.632;10.016;2023-05-10T10:13:06;17.20;91.20
29713;DHT22;16623;53.632;10.016;2023-05-10T10:15:32;16.90;92.60
29713;DHT22;16623;53.632;10.016;2023-05-10T10:17:58;16.70;93.60
29713;DHT22;16623;53.632;10.016;2023-05-10T10:20:26;16.50;95.10
29713;DHT22;16623;53.632;10.016;2023-05-10T10:22:52;16.30;97.80
29713;DHT22;16623;53.632;10.016;2023-05-10T10:25:19;16.10;99.90
29713;DHT22;16623;53.632;10.016;2023-05-10T10:30:42;15.60;99.90
29713;DHT22;16623;53.632;10.016;2023-05-10T10:36:07;15.50;99.90
29713;DHT22;16623;53.632;10.016;2023-05-10T10:38:37;15.50;99.90
29713;DHT22;16623;53.632;10.016;2023-05-10T10:41:11;15.40;99.90
29713;DHT22;16623;53.632;10.016;2023-05-10T10:52:33;15.20;99.90
29713;DHT22;16623;53.632;10.016;2023-05-10T10:57:42;15.10;99.90
29713;DHT22;16623;53.632;10.016;2023-05-10T11:00:28;15.20;99.90
29713;DHT22;16623;53.632;10.016;2023-05-10T11:03:03;15.20;99.90
29713;DHT22;16623;53.632;10.016;2023-05-10T11:07:59;15.50;99.90
29713;DHT22;16623;53.632;10.016;2023-05-10T11:10:26;15.30;99.90
29713;DHT22;16623;53.632;10.016;2023-05-10T11:13:02;15.00;99.90
29713;DHT22;16623;53.632;10.016;2023-05-10T11:15:39;14.90;99.90
29713;DHT22;16623;53.632;10.016;2023-05-10T11:18:24;14.80;99.90
29713;DHT22;16623;53.632;10.016;2023-05-10T11:20:57;14.50;99.90
29713;DHT22;16623;53.632;10.016;2023-05-10T11:23:30;14.50;99.90
29713;DHT22;16623;53.632;10.016;2023-05-10T11:25:56;14.40;99.90
29713;DHT22;16623;53.632;10.016;2023-05-10T11:28:21;14.40;99.90
29713;DHT22;16623;53.632;10.016;2023-05-10T11:30:47;14.30;99.90
29713;DHT22;16623;53.632;10.016;2023-05-10T11:33:17;14.30;99.90
29713;DHT22;16623;53.632;10.016;2023-05-10T11:35:43;14.40;99.90
29713;DHT22;16623;53.632;10.016;2023-05-10T11:38:10;14.50;99.90
29713;DHT22;16623;53.632;10.016;2023-05-10T11:40:37;14.50;99.90
29713;DHT22;16623;53.632;10.016;2023-05-10T11:43:04;14.50;99.90
29713;DHT22;16623;53.632;10.016;2023-05-10T11:45:32;14.60;99.90
29713;DHT22;16623;53.632;10.016;2023-05-10T11:47:58;14.80;99.90
29713;DHT22;16623;53.632;10.016;2023-05-10T11:50:24;14.90;99.90
29713;DHT22;16623;53.632;10.016;2023-05-10T11:52:55;15.00;99.90
29713;DHT22;16623;53.632;10.016;2023-05-10T11:55:21;15.10;99.90
29713;DHT22;16623;53.632;10.016;2023-05-10T11:57:48;15.10;99.90
29713;DHT22;16623;53.632;10.016;2023-05-10T12:00:17;15.10;99.90
29713;DHT22;16623;53.632;10.016;2023-05-10T12:02:42;15.10;99.90
29713;DHT22;16623;53.632;10.016;2023-05-10T12:05:08;15.10;99.90
29713;DHT22;16623;53.632;10.016;2023-05-10T12:07:35;15.10;99.90
29713;DHT22;16623;53.632;10.016;2023-05-10T12:10:08;15.20;99.90
29713;DHT22;16623;53.632;10.016;2023-05-10T12:12:38;15.10;99.90
29713;DHT22;16623;53.632;10.016;2023-05-10T12:15:05;15.20;99.90
29713;DHT22;16623;53.632;10.016;2023-05-10T12:17:31;15.30;99.90
29713;DHT22;16623;53.632;10.016;2023-05-10T12:20:20;15.40;99.90
29713;DHT22;16623;53.632;10.016;2023-05-10T12:22:51;15.40;99.90
29713;DHT22;16623;53.632;10.016;2023-05-10T12:25:18;15.50;99.90
29713;DHT22;16623;53.632;10.016;2023-05-10T12:27:54;15.30;99.90
29713;DHT22;16623;53.632;10.016;2023-05-10T12:30:26;15.40;99.90
29713;DHT22;16623;53.632;10.016;2023-05-10T12:32:53;15.40;99.90
29713;DHT22;16623;53.632;10.016;2023-05-10T12:35:19;15.50;99.90
29713;DHT22;16623;53.632;10.016;2023-05-10T12:37:50;15.50;99.90
29713;DHT22;16623;53.632;10.016;2023-05-10T12:40:16;15.60;99.90
29713;DHT22;16623;53.632;10.016;2023-05-10T12:42:43;15.70;99.90
29713;DHT22;16623;53.632;10.016;2023-05-10T12:45:12;15.70;99.90
29713;DHT22;16623;53.632;10.016;2023-05-10T12:47:38;15.70;99.90
29713;DHT22;16623;53.632;10.016;2023-05-10T12:50:04;15.70;99.90
29713;DHT22;16623;53.632;10.016;2023-05-10T12:52:31;15.80;99.90
29713;DHT22;16623;53.632;10.016;2023-05-10T12:54:58;15.80;99.90
29713;DHT22;16623;53.632;10.016;2023-05-10T12:57:24;16.00;99.90
29713;DHT22;16623;53.632;10.016;2023-05-10T12:59:50;16.00;99.90
29713;DHT22;16623;53.632;10.016;2023-05-10T13:02:16;16.00;99.90
29713;DHT22;16623;53.632;10.016;2023-05-10T13:04:47;16.30;99.90
29713;DHT22;16623;53.632;10.016;2023-05-10T13:07:13;16.30;99.90
29713;DHT22;16623;53.632;10.016;2023-05-10T13:09:39;16.50;99.90
29713;DHT22;16623;53.632;10.016;2023-05-10T13:12:05;16.40;99.90
29713;DHT22;16623;53.632;10.016;2023-05-10T13:14:31;16.40;99.90
29713;DHT22;16623;53.632;10.016;2023-05-10T13:16:57;16.40;99.90
29713;DHT22;16623;53.632;10.016;2023-05-10T13:19:23;16.50;99.90
29713;DHT22;16623;53.632;10.016;2023-05-10T13:21:48;16.40;99.90
29713;DHT22;16623;53.632;10.016;2023-05-10T13:24:14;16.60;99.90
29713;DHT22;16623;53.632;10.016;2023-05-10T13:26:43;16.60;99.90
29713;DHT22;16623;53.632;10.016;2023-05-10T13:29:08;16.50;99.90
29713;DHT22;16623;53.632;10.016;2023-05-10T13:31:34;16.70;99.90
29713;DHT22;16623;53.632;10.016;2023-05-10T13:34:01;16.80;99.90
29713;DHT22;16623;53.632;10.016;2023-05-10T13:36:27;17.00;99.90
29713;DHT22;16623;53.632;10.016;2023-05-10T13:38:53;17.00;99.90
29713;DHT22;16623;53.632;10.016;2023-05-10T13:41:18;16.90;99.90
29713;DHT22;16623;53.632;10.016;2023-05-10T13:43:44;17.00;99.90
29713;DHT22;16623;53.632;10.016;2023-05-10T13:46:10;17.00;99.90
29713;DHT22;16623;53.632;10.016;2023-05-10T13:48:35;17.10;99.90
29713;DHT22;16623;53.632;10.016;2023-05-10T13:51:04;17.10;99.90
29713;DHT22;16623;53.632;10.016;2023-05-10T13:53:30;17.10;99.90
29713;DHT22;16623;53.632;10.016;2023-05-10T13:59:02;17.10;99.90
29713;DHT22;16623;53.632;10.016;2023-05-10T14:01:28;17.00;99.90
29713;DHT22;16623;53.632;10.016;2023-05-10T14:03:54;17.00;99.90
29713;DHT22;16623;53.632;10.016;2023-05-10T14:06:19;17.00;99.90
29713;DHT22;16623;53.632;10.016;2023-05-10T14:08:45;17.00;99.90
29713;DHT22;16623;53.632;10.016;2023-05-10T14:11:11;17.00;99.90
29713;DHT22;16623;53.632;10.016;2023-05-10T14:13:36;17.00;99.90
29713;DHT22;16623;53.632;10.016;2023-05-10T14:16:02;17.00;99.90
29713;DHT22;16623;53.632;10.016;2023-05-10T14:18:28;17.00;99.90
29713;DHT22;16623;53.632;10.016;2023-05-10T14:20:53;17.10;99.90
29713;DHT22;16623;53.632;10.016;2023-05-10T14:23:20;17.10;99.90
29713;DHT22;16623;53.632;10.016;2023-05-10T14:25:49;17.10;99.90
29713;DHT22;16623;53.632;10.016;2023-05-10T14:28:16;17.20;99.90
29713;DHT22;16623;53.632;10.016;2023-05-10T14:30:44;18.30;99.90
29713;DHT22;16623;53.632;10.016;2023-05-10T14:33:10;17.10;99.90
29713;DHT22;16623;53.632;10.016;2023-05-10T14:35:36;17.00;99.90
29713;DHT22;16623;53.632;10.016;2023-05-10T14:38:03;17.10;99.90
29713;DHT22;16623;53.632;10.016;2023-05-10T14:40:29;17.10;99.90
29713;DHT22;16623;53.632;10.016;2023-05-10T14:42:55;17.20;99.90
29713;DHT22;16623;53.632;10.016;2023-05-10T14:45:21;17.30;99.90
29713;DHT22;16623;53.632;10.016;2023-05-10T14:47:47;17.30;99.90
29713;DHT22;16623;53.632;10.016;2023-05-10T14:50:13;17.30;99.90
29713;DHT22;16623;53.632;10.016;2023-05-10T14:52:39;17.30;99.90
29713;DHT22;16623;53.632;10.016;2023-05-10T14:55:05;17.30;99.90
29713;DHT22;16623;53.632;10.016;2023-05-10T14:57:31;17.30;99.90
29713;DHT22;16623;53.632;10.016;2023-05-10T14:59:57;17.20;99.90
29713;DHT22;16623;53.632;10.016;2023-05-10T15:02:23;17.30;99.90
29713;DHT22;16623;53.632;10.016;2023-05-10T15:04:49;17.30;99.90
29713;DHT22;16623;53.632;10.016;2023-05-10T15:07:14;17.30;99.90
29713;DHT22;16623;53.632;10.016;2023-05-10T15:09:41;17.30;99.90
29713;DHT22;16623;53.632;10.016;2023-05-10T15:12:07;17.30;99.90
29713;DHT22;16623;53.632;10.016;2023-05-10T15:14:33;17.30;99.90
29713;DHT22;16623;53.632;10.016;2023-05-10T15:16:59;17.20;99.90
29713;DHT22;16623;53.632;10.016;2023-05-10T15:19:25;17.20;99.90
29713;DHT22;16623;53.632;10.016;2023-05-10T15:21:51;17.30;99.90
29713;DHT22;16623;53.632;10.016;2023-05-10T15:24:16;17.40;99.90
29713;DHT22;16623;53.632;10.016;2023-05-10T15:26:42;17.50;99.90
29713;DHT22;16623;53.632;10.016;2023-05-10T15:29:08;17.40;99.90
29713;DHT22;16623;53.632;10.016;2023-05-10T15:31:33;17.40;99.90
29713;DHT22;16623;53.632;10.016;2023-05-10T15:34:01;17.40;99.90
29713;DHT22;16623;53.632;10.016;2023-05-10T15:36:27;17.50;99.90
29713;DHT22;16623;53.632;10.016;2023-05-10T15:38:56;17.50;99.90
29713;DHT22;16623;53.632;10.016;2023-05-10T15:41:22;17.50;99.90
29713;DHT22;16623;53.632;10.016;2023-05-10T15:43:48;17.50;99.90
29713;DHT22;16623;53.632;10.016;2023-05-10T15:46:13;17.40;99.90
29713;DHT22;16623;53.632;10.016;2023-05-10T15:48:39;17.40;99.90
29713;DHT22;16623;53.632;10.016;2023-05-10T15:51:05;17.40;99.90